sensor_id;sensor_type;location;lat;lon;timestamp;pressure;altitude;pressure_sealevel;temperature;humidity
4346;BME280;2186;49.866;7.986;2023-03-04T00:02:07;101072.66;;;0.24;97.39
4346;BME280;2186;49.866;7.986;2023-03-04T00:04:34;101080.44;;;0.22;95.83
4346;BME280;2186;49.866;7.986;2023-03-04T00:07:00;101074.19;;;0.16;96.13
4346;BME280;2186;49.866;7.986;2023-03-04T00:09:26;101072.22;;;0.07;95.96
4346;BME280;2186;49.866;7.986;2023-03-04T00:11:53;101081.72;;;0.04;96.34
4346;BME280;2186;49.866;7.986;2023-03-04T00:14:20;101084.19;;;-0.01;95.70
4346;BME280;2186;49.866;7.986;2023-03-04T00:16:46;101083.75;;;-0.16;96.08
4346;BME280;2186;49.866;7.986;2023-03-04T00:19:14;101081.13;;;-0.18;94.83
4346;BME280;2186;49.866;7.986;2023-03-04T00:21:41;101082.47;;;-0.32;94.97
4346;BME280;2186;49.866;7.986;2023-03-04T00:24:07;101088.59;;;-0.30;95.94
4346;BME280;2186;49.866;7.986;2023-03-04T00:26:34;101090.38;;;-0.29;96.00
4346;BME280;2186;49.866;7.986;2023-03-04T00:29:00;101085.38;;;-0.53;95.35
4346;BME280;2186;49.866;7.986;2023-03-04T00:31:27;101092.00;;;-0.64;95.43
4346;BME280;2186;49.866;7.986;2023-03-04T00:33:53;101097.47;;;-0.55;96.09
4346;BME280;2186;49.866;7.986;2023-03-04T00:36:20;101098.00;;;-0.67;94.37
4346;BME280;2186;49.866;7.986;2023-03-04T00:38:46;101092.59;;;-0.73;95.75
4346;BME280;2186;49.866;7.986;2023-03-04T00:41:12;101090.13;;;-0.68;95.69
4346;BME280;2186;49.866;7.986;2023-03-04T00:43:39;101086.41;;;-0.76;95.60
4346;BME280;2186;49.866;7.986;2023-03-04T00:46:05;101090.75;;;-0.77;95.34
4346;BME280;2186;49.866;7.986;2023-03-04T00:48:32;101089.78;;;-0.50;96.05
4346;BME280;2186;49.866;7.986;2023-03-04T00:50:58;101088.53;;;-0.63;95.52
4346;BME280;2186;49.866;7.986;2023-03-04T00:53:25;101086.78;;;-0.64;95.69
4346;BME280;2186;49.866;7.986;2023-03-04T00:55:51;101091.72;;;-0.73;95.77
4346;BME280;2186;49.866;7.986;2023-03-04T00:58:18;101082.81;;;-0.80;94.71
4346;BME280;2186;49.866;7.986;2023-03-04T01:00:44;101083.13;;;-0.98;95.01
4346;BME280;2186;49.866;7.986;2023-03-04T01:03:11;101083.34;;;-0.92;95.94
4346;BME280;2186;49.866;7.986;2023-03-04T01:05:37;101075.84;;;-1.09;95.43
4346;BME280;2186;49.866;7.986;2023-03-04T01:08:04;101076.72;;;-1.09;94.87
4346;BME280;2186;49.866;7.986;2023-03-04T01:10:31;101068.81;;;-1.10;94.78
4346;BME280;2186;49.866;7.986;2023-03-04T01:12:58;101072.00;;;-1.21;94.47
4346;BME280;2186;49.866;7.986;2023-03-04T01:15:25;101070.78;;;-1.32;94.98
4346;BME280;2186;49.866;7.986;2023-03-04T01:17:51;101071.13;;;-1.21;94.60
4346;BME280;2186;49.866;7.986;2023-03-04T01:20:18;101071.13;;;-1.21;93.94
4346;BME280;2186;49.866;7.986;2023-03-04T01:22:44;101067.50;;;-1.25;93.64
4346;BME280;2186;49.866;7.986;2023-03-04T01:25:11;101067.91;;;-1.39;93.83
4346;BME280;2186;49.866;7.986;2023-03-04T01:27:37;101068.66;;;-1.43;93.76
4346;BME280;2186;49.866;7.986;2023-03-04T01:30:04;101070.69;;;-1.35;93.99
4346;BME280;2186;49.866;7.986;2023-03-04T01:32:31;101062.69;;;-1.39;93.77
4346;BME280;2186;49.866;7.986;2023-03-04T01:34:58;101062.94;;;-1.59;94.00
4346;BME280;2186;49.866;7.986;2023-03-04T01:37:24;101057.69;;;-1.60;93.39
4346;BME280;2186;49.866;7.986;2023-03-04T01:39:51;101057.81;;;-1.56;93.23
4346;BME280;2186;49.866;7.986;2023-03-04T01:42:20;101054.16;;;-1.62;93.43
4346;BME280;2186;49.866;7.986;2023-03-04T01:44:47;101056.59;;;-1.67;93.42
4346;BME280;2186;49.866;7.986;2023-03-04T01:47:15;101046.34;;;-1.62;93.84
4346;BME280;2186;49.866;7.986;2023-03-04T01:49:41;101044.56;;;-1.63;93.54
4346;BME280;2186;49.866;7.986;2023-03-04T01:52:12;101047.09;;;-1.65;93.46
4346;BME280;2186;49.866;7.986;2023-03-04T01:54:39;101048.44;;;-1.77;93.97
4346;BME280;2186;49.866;7.986;2023-03-04T01:57:16;101047.69;;;-1.73;93.41
4346;BME280;2186;49.866;7.986;2023-03-04T01:59:43;101045.75;;;-1.79;94.01
4346;BME280;2186;49.866;7.986;2023-03-04T02:02:11;101041.28;;;-1.83;93.84
4346;BME280;2186;49.866;7.986;2023-03-04T02:04:38;101038.72;;;-1.82;93.94
4346;BME280;2186;49.866;7.986;2023-03-04T02:07:06;101030.53;;;-1.67;94.58
4346;BME280;2186;49.866;7.986;2023-03-04T02:09:33;101039.41;;;-1.87;94.63
4346;BME280;2186;49.866;7.986;2023-03-04T02:12:01;101030.69;;;-1.89;94.09
4346;BME280;2186;49.866;7.986;2023-03-04T02:14:27;101028.22;;;-1.85;94.01
4346;BME280;2186;49.866;7.986;2023-03-04T02:16:54;101024.31;;;-1.97;94.26
4346;BME280;2186;49.866;7.986;2023-03-04T02:19:41;101027.00;;;-1.94;94.16
4346;BME280;2186;49.866;7.986;2023-03-04T02:22:11;101017.13;;;-2.04;95.02
4346;BME280;2186;49.866;7.986;2023-03-04T02:24:57;101024.22;;;-2.00;95.29
4346;BME280;2186;49.866;7.986;2023-03-04T02:27:25;101018.06;;;-2.02;95.40
4346;BME280;2186;49.866;7.986;2023-03-04T02:29:52;101018.91;;;-2.03;95.65
4346;BME280;2186;49.866;7.986;2023-03-04T02:32:18;101015.00;;;-2.16;96.04
4346;BME280;2186;49.866;7.986;2023-03-04T02:34:47;101009.56;;;-2.22;95.35
4346;BME280;2186;49.866;7.986;2023-03-04T02:37:16;101007.78;;;-2.23;94.33
4346;BME280;2186;49.866;7.986;2023-03-04T02:39:44;101011.28;;;-2.23;94.27
4346;BME280;2186;49.866;7.986;2023-03-04T02:42:11;101015.31;;;-2.32;93.59
4346;BME280;2186;49.866;7.986;2023-03-04T02:44:41;101010.56;;;-2.19;94.52
4346;BME280;2186;49.866;7.986;2023-03-04T02:47:10;101010.97;;;-2.32;93.94
4346;BME280;2186;49.866;7.986;2023-03-04T02:49:38;101011.22;;;-2.24;93.30
4346;BME280;2186;49.866;7.986;2023-03-04T02:54:33;101006.53;;;-2.34;94.75
4346;BME280;2186;49.866;7.986;2023-03-04T02:57:02;100998.38;;;-2.45;94.10
4346;BME280;2186;49.866;7.986;2023-03-04T02:59:29;101006.72;;;-2.30;94.31
4346;BME280;2186;49.866;7.986;2023-03-04T03:01:56;100999.88;;;-2.26;94.54
4346;BME280;2186;49.866;7.986;2023-03-04T03:04:23;101008.88;;;-2.42;94.75
4346;BME280;2186;49.866;7.986;2023-03-04T03:06:50;101006.84;;;-2.51;94.64
4346;BME280;2186;49.866;7.986;2023-03-04T03:09:17;101005.34;;;-2.44;93.89
4346;BME280;2186;49.866;7.986;2023-03-04T03:11:43;101002.75;;;-2.44;93.56
4346;BME280;2186;49.866;7.986;2023-03-04T03:14:10;101008.56;;;-2.51;92.97
4346;BME280;2186;49.866;7.986;2023-03-04T03:16:36;101012.97;;;-2.49;93.27
4346;BME280;2186;49.866;7.986;2023-03-04T03:19:03;101004.91;;;-2.56;92.67
4346;BME280;2186;49.866;7.986;2023-03-04T03:21:29;101003.34;;;-2.75;95.12
4346;BME280;2186;49.866;7.986;2023-03-04T03:23:56;101003.16;;;-2.57;94.92
4346;BME280;2186;49.866;7.986;2023-03-04T03:26:22;101011.66;;;-2.61;93.81
4346;BME280;2186;49.866;7.986;2023-03-04T03:28:49;101002.91;;;-2.63;94.03
4346;BME280;2186;49.866;7.986;2023-03-04T03:31:15;101001.19;;;-2.63;94.34
4346;BME280;2186;49.866;7.986;2023-03-04T03:33:42;100993.22;;;-2.67;94.08
4346;BME280;2186;49.866;7.986;2023-03-04T03:36:08;100997.06;;;-2.58;94.40
4346;BME280;2186;49.866;7.986;2023-03-04T03:38:35;100999.84;;;-2.52;94.05
4346;BME280;2186;49.866;7.986;2023-03-04T03:41:01;100997.50;;;-2.46;94.97
4346;BME280;2186;49.866;7.986;2023-03-04T03:43:27;100987.84;;;-2.48;94.18
4346;BME280;2186;49.866;7.986;2023-03-04T03:45:54;100988.72;;;-2.48;93.89
4346;BME280;2186;49.866;7.986;2023-03-04T03:48:20;100989.50;;;-2.50;93.56
4346;BME280;2186;49.866;7.986;2023-03-04T03:50:47;100989.19;;;-2.34;94.32
4346;BME280;2186;49.866;7.986;2023-03-04T03:53:13;100988.25;;;-2.36;94.42
4346;BME280;2186;49.866;7.986;2023-03-04T03:55:40;100992.16;;;-2.23;94.44
4346;BME280;2186;49.866;7.986;2023-03-04T03:58:06;100989.53;;;-2.25;95.06
4346;BME280;2186;49.866;7.986;2023-03-04T04:00:33;100986.13;;;-2.22;95.39
4346;BME280;2186;49.866;7.986;2023-03-04T04:03:00;100978.22;;;-2.00;96.03
4346;BME280;2186;49.866;7.986;2023-03-04T04:05:26;100989.09;;;-2.12;97.17
4346;BME280;2186;49.866;7.986;2023-03-04T04:07:53;100987.09;;;-1.93;96.58
4346;BME280;2186;49.866;7.986;2023-03-04T04:10:19;100998.31;;;-1.96;97.82
4346;BME280;2186;49.866;7.986;2023-03-04T04:12:46;100998.31;;;-1.96;98.39
4346;BME280;2186;49.866;7.986;2023-03-04T04:15:13;100987.50;;;-1.81;98.71
4346;BME280;2186;49.866;7.986;2023-03-04T04:17:39;100988.84;;;-1.67;99.05
4346;BME280;2186;49.866;7.986;2023-03-04T04:20:07;100989.84;;;-1.63;99.95
4346;BME280;2186;49.866;7.986;2023-03-04T04:22:34;100987.94;;;-1.40;99.97
4346;BME280;2186;49.866;7.986;2023-03-04T04:25:00;100994.03;;;-1.40;99.30
4346;BME280;2186;49.866;7.986;2023-03-04T04:27:27;100996.09;;;-1.30;98.83
4346;BME280;2186;49.866;7.986;2023-03-04T04:29:53;100993.47;;;-1.30;99.17
4346;BME280;2186;49.866;7.986;2023-03-04T04:32:19;100989.34;;;-1.23;99.03
4346;BME280;2186;49.866;7.986;2023-03-04T04:34:46;100990.34;;;-1.18;98.41
4346;BME280;2186;49.866;7.986;2023-03-04T04:37:12;100986.16;;;-1.13;99.28
4346;BME280;2186;49.866;7.986;2023-03-04T04:39:39;100990.41;;;-1.16;99.51
4346;BME280;2186;49.866;7.986;2023-03-04T04:42:05;100989.47;;;-1.18;100.00
4346;BME280;2186;49.866;7.986;2023-03-04T04:44:32;100981.97;;;-1.08;100.00
4346;BME280;2186;49.866;7.986;2023-03-04T04:46:58;100983.97;;;-1.28;100.00
4346;BME280;2186;49.866;7.986;2023-03-04T04:49:24;100987.50;;;-1.26;100.00
4346;BME280;2186;49.866;7.986;2023-03-04T04:51:51;100985.03;;;-0.93;100.00
4346;BME280;2186;49.866;7.986;2023-03-04T04:54:17;100991.16;;;-0.91;100.00
4346;BME280;2186;49.866;7.986;2023-03-04T04:56:43;100991.66;;;-1.04;100.00
4346;BME280;2186;49.866;7.986;2023-03-04T04:59:10;100985.47;;;-0.77;100.00
4346;BME280;2186;49.866;7.986;2023-03-04T05:01:36;100985.28;;;-0.83;100.00
4346;BME280;2186;49.866;7.986;2023-03-04T05:04:03;100984.81;;;-0.69;100.00
4346;BME280;2186;49.866;7.986;2023-03-04T05:06:30;100988.97;;;-0.77;100.00
4346;BME280;2186;49.866;7.986;2023-03-04T05:08:56;100986.72;;;-0.63;100.00
4346;BME280;2186;49.866;7.986;2023-03-04T05:11:23;100985.81;;;-0.65;100.00
4346;BME280;2186;49.866;7.986;2023-03-04T05:13:49;100990.50;;;-0.53;100.00
4346;BME280;2186;49.866;7.986;2023-03-04T05:16:17;100979.56;;;-0.39;100.00
4346;BME280;2186;49.866;7.986;2023-03-04T05:18:43;100977.69;;;-0.43;100.00
4346;BME280;2186;49.866;7.986;2023-03-04T05:21:10;100973.25;;;-0.47;100.00
4346;BME280;2186;49.866;7.986;2023-03-04T05:23:40;100973.44;;;-0.41;100.00
4346;BME280;2186;49.866;7.986;2023-03-04T05:26:08;100977.91;;;-0.35;100.00
4346;BME280;2186;49.866;7.986;2023-03-04T05:28:35;100968.31;;;-0.36;100.00
4346;BME280;2186;49.866;7.986;2023-03-04T05:31:02;100965.00;;;-0.29;100.00
4346;BME280;2186;49.866;7.986;2023-03-04T05:33:29;100971.03;;;-0.32;100.00
4346;BME280;2186;49.866;7.986;2023-03-04T05:35:56;100970.19;;;-0.31;100.00
4346;BME280;2186;49.866;7.986;2023-03-04T05:38:23;100982.69;;;-0.52;100.00
4346;BME280;2186;49.866;7.986;2023-03-04T05:40:59;100972.72;;;-0.34;100.00
4346;BME280;2186;49.866;7.986;2023-03-04T05:43:26;100976.25;;;-0.32;100.00
4346;BME280;2186;49.866;7.986;2023-03-04T05:45:53;100974.19;;;-0.12;100.00
4346;BME280;2186;49.866;7.986;2023-03-04T05:48:20;100987.66;;;-0.61;100.00
4346;BME280;2186;49.866;7.986;2023-03-04T05:50:52;100983.44;;;-0.56;100.00
4346;BME280;2186;49.866;7.986;2023-03-04T05:53:18;100977.03;;;-0.36;100.00
4346;BME280;2186;49.866;7.986;2023-03-04T05:55:46;100982.25;;;-0.36;100.00
4346;BME280;2186;49.866;7.986;2023-03-04T05:58:13;100984.44;;;-0.19;100.00
4346;BME280;2186;49.866;7.986;2023-03-04T06:00:40;100984.31;;;-0.55;100.00
4346;BME280;2186;49.866;7.986;2023-03-04T06:03:13;100976.50;;;-0.22;100.00
4346;BME280;2186;49.866;7.986;2023-03-04T06:05:40;100978.16;;;-0.26;100.00
4346;BME280;2186;49.866;7.986;2023-03-04T06:08:06;100978.09;;;-0.27;100.00
4346;BME280;2186;49.866;7.986;2023-03-04T06:10:33;100981.56;;;-0.28;100.00
4346;BME280;2186;49.866;7.986;2023-03-04T06:12:59;100981.00;;;-0.17;100.00
4346;BME280;2186;49.866;7.986;2023-03-04T06:15:25;100989.56;;;-0.22;100.00
4346;BME280;2186;49.866;7.986;2023-03-04T06:17:52;100987.34;;;-0.07;100.00
4346;BME280;2186;49.866;7.986;2023-03-04T06:20:18;100987.75;;;0.08;100.00
4346;BME280;2186;49.866;7.986;2023-03-04T06:22:45;100985.47;;;-0.13;100.00
4346;BME280;2186;49.866;7.986;2023-03-04T06:25:11;100994.34;;;-0.06;100.00
4346;BME280;2186;49.866;7.986;2023-03-04T06:27:38;100988.97;;;0.22;100.00
4346;BME280;2186;49.866;7.986;2023-03-04T06:30:05;100979.25;;;0.17;100.00
4346;BME280;2186;49.866;7.986;2023-03-04T06:32:32;100996.34;;;0.04;100.00
4346;BME280;2186;49.866;7.986;2023-03-04T06:34:58;100995.78;;;0.16;100.00
4346;BME280;2186;49.866;7.986;2023-03-04T06:37:25;100991.75;;;0.28;100.00
4346;BME280;2186;49.866;7.986;2023-03-04T06:39:51;100993.00;;;0.44;100.00
4346;BME280;2186;49.866;7.986;2023-03-04T06:42:17;100991.78;;;0.30;100.00
4346;BME280;2186;49.866;7.986;2023-03-04T06:44:44;101003.22;;;0.35;100.00
4346;BME280;2186;49.866;7.986;2023-03-04T06:47:11;101004.94;;;0.35;100.00
4346;BME280;2186;49.866;7.986;2023-03-04T06:49:37;101009.72;;;0.52;100.00
4346;BME280;2186;49.866;7.986;2023-03-04T06:52:03;101013.16;;;0.50;100.00
4346;BME280;2186;49.866;7.986;2023-03-04T06:54:30;101011.63;;;0.58;100.00
4346;BME280;2186;49.866;7.986;2023-03-04T06:56:56;101011.88;;;0.69;100.00
4346;BME280;2186;49.866;7.986;2023-03-04T06:59:23;101011.47;;;0.52;100.00
4346;BME280;2186;49.866;7.986;2023-03-04T07:01:49;101009.03;;;0.59;100.00
4346;BME280;2186;49.866;7.986;2023-03-04T07:04:16;101012.09;;;0.79;100.00
4346;BME280;2186;49.866;7.986;2023-03-04T07:06:42;101017.63;;;0.93;100.00
4346;BME280;2186;49.866;7.986;2023-03-04T07:09:09;101018.75;;;1.04;100.00
4346;BME280;2186;49.866;7.986;2023-03-04T07:11:35;101019.56;;;1.02;100.00
4346;BME280;2186;49.866;7.986;2023-03-04T07:14:01;101023.38;;;0.77;100.00
4346;BME280;2186;49.866;7.986;2023-03-04T07:16:28;101021.06;;;0.91;100.00
4346;BME280;2186;49.866;7.986;2023-03-04T07:18:54;101026.03;;;0.78;100.00
4346;BME280;2186;49.866;7.986;2023-03-04T07:21:21;101030.97;;;1.04;100.00
4346;BME280;2186;49.866;7.986;2023-03-04T07:23:47;101035.53;;;1.12;100.00
4346;BME280;2186;49.866;7.986;2023-03-04T07:26:14;101032.38;;;0.89;100.00
4346;BME280;2186;49.866;7.986;2023-03-04T07:28:41;101042.81;;;0.88;100.00
4346;BME280;2186;49.866;7.986;2023-03-04T07:31:09;101036.97;;;0.98;100.00
4346;BME280;2186;49.866;7.986;2023-03-04T07:33:35;101027.81;;;1.20;100.00
4346;BME280;2186;49.866;7.986;2023-03-04T07:36:02;101033.19;;;1.26;100.00
4346;BME280;2186;49.866;7.986;2023-03-04T07:38:28;101036.13;;;1.41;100.00
4346;BME280;2186;49.866;7.986;2023-03-04T07:40:56;101040.47;;;1.39;100.00
4346;BME280;2186;49.866;7.986;2023-03-04T07:43:23;101035.34;;;1.47;100.00
4346;BME280;2186;49.866;7.986;2023-03-04T07:45:49;101036.34;;;1.52;100.00
4346;BME280;2186;49.866;7.986;2023-03-04T07:48:16;101033.31;;;1.32;100.00
4346;BME280;2186;49.866;7.986;2023-03-04T07:50:42;101042.66;;;1.63;100.00
4346;BME280;2186;49.866;7.986;2023-03-04T07:53:09;101043.72;;;1.73;100.00
4346;BME280;2186;49.866;7.986;2023-03-04T07:55:35;101032.41;;;1.75;100.00
4346;BME280;2186;49.866;7.986;2023-03-04T07:58:01;101042.16;;;1.81;100.00
4346;BME280;2186;49.866;7.986;2023-03-04T08:00:28;101051.53;;;1.70;100.00
4346;BME280;2186;49.866;7.986;2023-03-04T08:02:54;101040.63;;;1.92;100.00
4346;BME280;2186;49.866;7.986;2023-03-04T08:05:21;101041.59;;;1.99;100.00
4346;BME280;2186;49.866;7.986;2023-03-04T08:07:47;101044.31;;;2.05;100.00
4346;BME280;2186;49.866;7.986;2023-03-04T08:10:13;101040.94;;;2.11;100.00
4346;BME280;2186;49.866;7.986;2023-03-04T08:12:40;101044.44;;;2.10;100.00
4346;BME280;2186;49.866;7.986;2023-03-04T08:15:07;101041.03;;;2.17;100.00
4346;BME280;2186;49.866;7.986;2023-03-04T08:17:34;101046.25;;;2.14;100.00
4346;BME280;2186;49.866;7.986;2023-03-04T08:20:00;101043.84;;;2.26;100.00
4346;BME280;2186;49.866;7.986;2023-03-04T08:22:27;101049.13;;;2.29;100.00
4346;BME280;2186;49.866;7.986;2023-03-04T08:24:53;101046.72;;;2.41;100.00
4346;BME280;2186;49.866;7.986;2023-03-04T08:27:19;101048.44;;;2.39;100.00
4346;BME280;2186;49.866;7.986;2023-03-04T08:29:46;101053.06;;;2.54;100.00
4346;BME280;2186;49.866;7.986;2023-03-04T08:32:12;101052.31;;;2.61;100.00
4346;BME280;2186;49.866;7.986;2023-03-04T08:34:39;101053.44;;;2.78;99.44
4346;BME280;2186;49.866;7.986;2023-03-04T08:37:06;101057.81;;;2.78;99.27
4346;BME280;2186;49.866;7.986;2023-03-04T08:39:32;101057.97;;;2.88;99.59
4346;BME280;2186;49.866;7.986;2023-03-04T08:42:01;101056.25;;;2.89;99.23
4346;BME280;2186;49.866;7.986;2023-03-04T08:44:27;101061.63;;;3.00;99.09
4346;BME280;2186;49.866;7.986;2023-03-04T08:46:53;101064.50;;;3.16;98.84
4346;BME280;2186;49.866;7.986;2023-03-04T08:49:20;101061.94;;;3.22;97.63
4346;BME280;2186;49.866;7.986;2023-03-04T08:51:46;101050.63;;;3.28;97.48
4346;BME280;2186;49.866;7.986;2023-03-04T08:54:13;101055.13;;;3.35;97.28
4346;BME280;2186;49.866;7.986;2023-03-04T08:56:40;101060.44;;;3.40;97.33
4346;BME280;2186;49.866;7.986;2023-03-04T08:59:06;101055.19;;;3.41;97.40
4346;BME280;2186;49.866;7.986;2023-03-04T09:01:32;101060.53;;;3.47;97.61
4346;BME280;2186;49.866;7.986;2023-03-04T09:03:59;101054.47;;;3.54;97.35
4346;BME280;2186;49.866;7.986;2023-03-04T09:06:25;101058.06;;;3.58;96.87
4346;BME280;2186;49.866;7.986;2023-03-04T09:08:52;101050.31;;;3.72;96.91
4346;BME280;2186;49.866;7.986;2023-03-04T09:11:18;101047.69;;;3.72;96.56
4346;BME280;2186;49.866;7.986;2023-03-04T09:13:45;101047.78;;;3.82;95.87
4346;BME280;2186;49.866;7.986;2023-03-04T09:16:13;101052.28;;;3.91;95.76
4346;BME280;2186;49.866;7.986;2023-03-04T09:18:40;101050.56;;;3.95;95.36
4346;BME280;2186;49.866;7.986;2023-03-04T09:21:07;101056.66;;;3.92;95.56
4346;BME280;2186;49.866;7.986;2023-03-04T09:23:35;101055.03;;;4.02;95.03
4346;BME280;2186;49.866;7.986;2023-03-04T09:26:13;101059.41;;;4.03;95.58
4346;BME280;2186;49.866;7.986;2023-03-04T09:28:39;101054.34;;;4.21;94.34
4346;BME280;2186;49.866;7.986;2023-03-04T09:31:13;101057.84;;;4.20;94.76
4346;BME280;2186;49.866;7.986;2023-03-04T09:33:40;101042.16;;;4.32;93.80
4346;BME280;2186;49.866;7.986;2023-03-04T09:36:10;101055.34;;;4.37;92.89
4346;BME280;2186;49.866;7.986;2023-03-04T09:38:37;101054.69;;;4.59;92.42
4346;BME280;2186;49.866;7.986;2023-03-04T09:41:07;101051.94;;;4.44;93.26
4346;BME280;2186;49.866;7.986;2023-03-04T09:43:34;101056.22;;;4.37;93.86
4346;BME280;2186;49.866;7.986;2023-03-04T09:46:03;101057.09;;;4.36;92.28
4346;BME280;2186;49.866;7.986;2023-03-04T09:48:39;101050.09;;;4.35;92.07
4346;BME280;2186;49.866;7.986;2023-03-04T09:51:52;101050.16;;;4.43;92.63
4346;BME280;2186;49.866;7.986;2023-03-04T09:56:50;101045.03;;;4.60;92.13
4346;BME280;2186;49.866;7.986;2023-03-04T09:59:26;101047.75;;;4.72;91.13
4346;BME280;2186;49.866;7.986;2023-03-04T10:01:59;101045.13;;;4.73;91.34
4346;BME280;2186;49.866;7.986;2023-03-04T10:04:36;101046.97;;;4.82;90.22
4346;BME280;2186;49.866;7.986;2023-03-04T10:07:20;101057.53;;;4.87;89.94
4346;BME280;2186;49.866;7.986;2023-03-04T10:09:55;101051.34;;;4.82;90.07
4346;BME280;2186;49.866;7.986;2023-03-04T10:12:28;101056.56;;;4.75;90.57
4346;BME280;2186;49.866;7.986;2023-03-04T10:15:03;101052.25;;;4.88;90.50
4346;BME280;2186;49.866;7.986;2023-03-04T10:20:23;101045.31;;;4.99;89.28
4346;BME280;2186;49.866;7.986;2023-03-04T10:22:55;101045.25;;;4.93;89.29
4346;BME280;2186;49.866;7.986;2023-03-04T10:25:25;101038.31;;;5.03;89.59
4346;BME280;2186;49.866;7.986;2023-03-04T10:28:15;101036.47;;;4.91;89.20
4346;BME280;2186;49.866;7.986;2023-03-04T10:31:00;101043.56;;;5.04;90.04
4346;BME280;2186;49.866;7.986;2023-03-04T10:33:29;101035.66;;;4.98;89.49
4346;BME280;2186;49.866;7.986;2023-03-04T10:36:11;101040.06;;;5.01;88.43
4346;BME280;2186;49.866;7.986;2023-03-04T10:38:43;101037.41;;;5.02;88.62
4346;BME280;2186;49.866;7.986;2023-03-04T10:41:15;101029.53;;;5.05;88.15
4346;BME280;2186;49.866;7.986;2023-03-04T10:43:42;101037.56;;;5.24;89.08
4346;BME280;2186;49.866;7.986;2023-03-04T10:46:12;101026.13;;;5.22;88.33
4346;BME280;2186;49.866;7.986;2023-03-04T10:48:43;101032.28;;;5.25;88.23
4346;BME280;2186;49.866;7.986;2023-03-04T10:51:25;101028.75;;;5.22;87.99
4346;BME280;2186;49.866;7.986;2023-03-04T10:54:09;101029.59;;;5.16;88.68
4346;BME280;2186;49.866;7.986;2023-03-04T10:56:51;101028.84;;;5.40;88.47
4346;BME280;2186;49.866;7.986;2023-03-04T11:07:54;101020.94;;;5.43;87.77
4346;BME280;2186;49.866;7.986;2023-03-04T11:10:30;101018.25;;;5.31;86.88
4346;BME280;2186;49.866;7.986;2023-03-04T11:13:04;101014.81;;;5.49;86.92
4346;BME280;2186;49.866;7.986;2023-03-04T11:15:55;101010.50;;;5.75;86.18
4346;BME280;2186;49.866;7.986;2023-03-04T11:21:13;101011.31;;;5.50;87.39
4346;BME280;2186;49.866;7.986;2023-03-04T11:24:01;101003.38;;;5.47;87.06
4346;BME280;2186;49.866;7.986;2023-03-04T11:26:47;101001.66;;;5.61;86.90
4346;BME280;2186;49.866;7.986;2023-03-04T11:29:20;101002.53;;;5.55;87.08
4346;BME280;2186;49.866;7.986;2023-03-04T11:31:54;101004.44;;;5.90;86.88
4346;BME280;2186;49.866;7.986;2023-03-04T11:39:58;101000.81;;;5.68;87.10
4346;BME280;2186;49.866;7.986;2023-03-04T11:42:50;100998.09;;;5.45;87.75
4346;BME280;2186;49.866;7.986;2023-03-04T11:51:38;100989.38;;;5.64;86.60
4346;BME280;2186;49.866;7.986;2023-03-04T12:03:14;100977.03;;;5.56;87.58
4346;BME280;2186;49.866;7.986;2023-03-04T12:06:09;100977.03;;;5.59;87.74
4346;BME280;2186;49.866;7.986;2023-03-04T12:11:29;100964.75;;;5.56;87.81
4346;BME280;2186;49.866;7.986;2023-03-04T12:19:34;100964.75;;;5.59;87.17
4346;BME280;2186;49.866;7.986;2023-03-04T12:22:22;100962.13;;;5.64;86.61
4346;BME280;2186;49.866;7.986;2023-03-04T12:25:15;100962.09;;;5.59;86.08
4346;BME280;2186;49.866;7.986;2023-03-04T12:28:09;100961.22;;;5.56;86.72
4346;BME280;2186;49.866;7.986;2023-03-04T12:33:18;100960.38;;;5.71;86.55
4346;BME280;2186;49.866;7.986;2023-03-04T12:35:59;100948.97;;;5.85;85.49
4346;BME280;2186;49.866;7.986;2023-03-04T12:54:43;100927.03;;;6.15;84.68
4346;BME280;2186;49.866;7.986;2023-03-04T12:57:17;100934.94;;;6.00;85.92
4346;BME280;2186;49.866;7.986;2023-03-04T12:59:53;100928.81;;;6.04;85.49
4346;BME280;2186;49.866;7.986;2023-03-04T13:05:30;100912.03;;;6.40;83.56
4346;BME280;2186;49.866;7.986;2023-03-04T13:08:38;100917.31;;;6.49;83.37
4346;BME280;2186;49.866;7.986;2023-03-04T13:18:58;100905.88;;;6.49;82.57
4346;BME280;2186;49.866;7.986;2023-03-04T13:21:27;100896.97;;;6.79;82.12
4346;BME280;2186;49.866;7.986;2023-03-04T13:23:54;100891.69;;;6.79;80.51
4346;BME280;2186;49.866;7.986;2023-03-04T13:26:29;100893.41;;;6.91;79.22
4346;BME280;2186;49.866;7.986;2023-03-04T13:34:55;100877.63;;;6.75;80.74
4346;BME280;2186;49.866;7.986;2023-03-04T13:37:55;100873.22;;;6.77;80.55
4346;BME280;2186;49.866;7.986;2023-03-04T13:40:31;100885.56;;;6.69;82.03
4346;BME280;2186;49.866;7.986;2023-03-04T13:43:21;100873.28;;;6.54;81.66
4346;BME280;2186;49.866;7.986;2023-03-04T13:45:49;100867.94;;;6.70;81.35
4346;BME280;2186;49.866;7.986;2023-03-04T13:48:33;100873.28;;;6.51;81.52
4346;BME280;2186;49.866;7.986;2023-03-04T13:51:02;100869.72;;;6.72;81.14
4346;BME280;2186;49.866;7.986;2023-03-04T13:53:38;100871.41;;;6.82;80.35
4346;BME280;2186;49.866;7.986;2023-03-04T13:56:11;100868.84;;;6.67;81.46
4346;BME280;2186;49.866;7.986;2023-03-04T13:58:40;100869.66;;;6.89;82.04
4346;BME280;2186;49.866;7.986;2023-03-04T14:01:22;100852.97;;;6.73;82.01
4346;BME280;2186;49.866;7.986;2023-03-04T14:03:49;100859.09;;;6.81;82.01
4346;BME280;2186;49.866;7.986;2023-03-04T14:08:52;100848.50;;;6.89;81.57
4346;BME280;2186;49.866;7.986;2023-03-04T14:11:34;100849.28;;;7.08;81.29
4346;BME280;2186;49.866;7.986;2023-03-04T14:14:06;100849.34;;;6.97;80.73
4346;BME280;2186;49.866;7.986;2023-03-04T14:16:39;100847.69;;;6.73;81.83
4346;BME280;2186;49.866;7.986;2023-03-04T14:19:14;100843.22;;;6.84;81.78
4346;BME280;2186;49.866;7.986;2023-03-04T14:21:45;100837.94;;;6.83;82.67
4346;BME280;2186;49.866;7.986;2023-03-04T14:24:14;100837.06;;;6.82;81.38
4346;BME280;2186;49.866;7.986;2023-03-04T14:26:41;100840.66;;;6.75;81.71
4346;BME280;2186;49.866;7.986;2023-03-04T14:29:37;100824.75;;;6.83;81.78
4346;BME280;2186;49.866;7.986;2023-03-04T14:32:05;100831.72;;;7.02;81.77
4346;BME280;2186;49.866;7.986;2023-03-04T14:34:35;100822.84;;;7.14;80.97
4346;BME280;2186;49.866;7.986;2023-03-04T14:37:14;100822.03;;;7.00;81.08
4346;BME280;2186;49.866;7.986;2023-03-04T14:39:48;100821.16;;;7.01;82.13
4346;BME280;2186;49.866;7.986;2023-03-04T14:42:16;100824.69;;;6.95;81.97
4346;BME280;2186;49.866;7.986;2023-03-04T14:44:48;100813.25;;;6.93;81.60
4346;BME280;2186;49.866;7.986;2023-03-04T14:47:40;100817.53;;;7.11;81.39
4346;BME280;2186;49.866;7.986;2023-03-04T14:50:14;100811.47;;;7.00;81.80
4346;BME280;2186;49.866;7.986;2023-03-04T14:52:48;100808.75;;;7.09;81.64